Time;durP1;ratioP1;P1;durP2;ratioP2;P2;SDS_P1;SDS_P2;PMS_P1;PMS_P2;Temp;Humidity;BMP_temperature;BMP_pressure;BME280_temperature;BME280_humidity;BME280_pressure;Samples;Min_cycle;Max_cycle;Signal;HPM_P1;HPM_P2
2022/05/23 00:01:44;;;;;;;3.55;1.63;;;14.90;99.90;;;;;;5047216;28;20041;-63
2022/05/23 00:04:10;;;;;;;4.18;1.45;;;14.90;99.90;;;;;;5049137;28;20037;-63
2022/05/23 00:06:36;;;;;;;4.25;1.50;;;14.90;99.90;;;;;;5048917;28;20051;-63
2022/05/23 00:09:02;;;;;;;4.50;1.45;;;14.80;99.90;;;;;;5044688;28;20085;-63
2022/05/23 00:11:28;;;;;;;3.70;1.50;;;14.80;99.90;;;;;;5048214;28;20483;-63
2022/05/23 00:13:53;;;;;;;4.18;1.50;;;14.70;99.90;;;;;;5045923;28;20033;-63
2022/05/23 00:16:23;;;;;;;3.83;1.52;;;14.70;99.90;;;;;;5049211;28;20099;-63
2022/05/23 00:18:49;;;;;;;3.50;1.83;;;14.70;99.90;;;;;;5049840;28;20051;-64
2022/05/23 00:21:16;;;;;;;4.25;1.80;;;14.70;99.90;;;;;;5048151;28;20041;-63
2022/05/23 00:23:42;;;;;;;5.03;1.70;;;14.60;99.90;;;;;;5047574;28;20060;-63
2022/05/23 00:26:11;;;;;;;3.65;1.63;;;14.60;99.90;;;;;;5049056;28;20403;-63
2022/05/23 00:28:40;;;;;;;5.72;1.60;;;14.60;99.90;;;;;;5046616;28;20400;-63
2022/05/23 00:31:06;;;;;;;6.13;2.03;;;14.60;99.90;;;;;;5059614;28;20510;-63
2022/05/23 00:36:16;;;;;;;4.55;1.70;;;14.60;99.90;;;;;;5045260;28;20071;-63
2022/05/23 00:38:42;;;;;;;5.70;1.85;;;14.60;99.90;;;;;;5049053;28;20037;-63
2022/05/23 00:44:27;;;;;;;3.85;1.60;;;14.60;99.90;;;;;;5045485;28;20051;-63
2022/05/23 00:46:59;;;;;;;7.70;1.73;;;14.60;99.90;;;;;;5046883;28;20048;-64
2022/05/23 00:49:31;;;;;;;4.32;1.50;;;14.50;99.90;;;;;;5049939;28;20076;-63
2022/05/23 00:52:01;;;;;;;3.00;1.45;;;14.60;99.90;;;;;;5045375;28;20044;-63
2022/05/23 00:54:33;;;;;;;4.28;1.60;;;14.50;99.90;;;;;;5049914;28;20037;-64
2022/05/23 00:56:59;;;;;;;3.42;1.60;;;14.50;99.90;;;;;;5050495;28;20132;-63
2022/05/23 00:59:31;;;;;;;2.70;1.48;;;14.50;99.90;;;;;;5051565;28;20120;-63
2022/05/23 01:01:57;;;;;;;3.13;1.55;;;14.50;99.90;;;;;;5052313;28;20123;-63
2022/05/23 01:04:23;;;;;;;5.40;1.60;;;14.50;99.90;;;;;;5048773;28;20052;-63
2022/05/23 01:06:49;;;;;;;4.70;1.75;;;14.50;99.90;;;;;;5049029;28;20087;-63
2022/05/23 01:09:15;;;;;;;6.28;2.25;;;14.50;99.90;;;;;;5051102;28;20037;-64
2022/05/23 01:11:40;;;;;;;6.25;1.77;;;14.50;99.90;;;;;;5049419;28;20510;-64
2022/05/23 01:14:07;;;;;;;3.47;1.60;;;14.40;99.90;;;;;;5046280;28;20098;-63
2022/05/23 01:16:33;;;;;;;4.15;2.00;;;14.40;99.90;;;;;;5053016;28;20474;-63
2022/05/23 01:18:59;;;;;;;5.10;2.03;;;14.40;99.90;;;;;;5051396;28;20079;-63
2022/05/23 01:21:42;;;;;;;4.05;1.40;;;14.40;99.90;;;;;;5052362;28;20082;-63
2022/05/23 01:24:32;;;;;;;3.95;1.95;;;14.40;99.90;;;;;;5044185;28;20398;-64
2022/05/23 01:26:59;;;;;;;4.68;1.45;;;14.40;99.90;;;;;;5052061;28;20037;-63
2022/05/23 01:29:24;;;;;;;4.55;1.65;;;14.40;99.90;;;;;;5052509;28;20399;-63
2022/05/23 01:31:50;;;;;;;4.63;1.55;;;14.40;99.90;;;;;;5048670;28;20047;-63
2022/05/23 01:34:16;;;;;;;2.88;1.30;;;14.40;99.90;;;;;;5049304;28;20068;-63
2022/05/23 01:36:42;;;;;;;6.95;1.80;;;14.40;99.90;;;;;;5049786;28;20244;-63
2022/05/23 01:39:07;;;;;;;4.38;1.38;;;14.40;99.90;;;;;;5049339;28;20123;-63
2022/05/23 01:41:33;;;;;;;6.38;1.60;;;14.30;99.90;;;;;;5050934;28;20041;-63
2022/05/23 01:43:58;;;;;;;3.95;1.40;;;14.30;99.90;;;;;;5047206;28;20037;-63
2022/05/23 01:46:24;;;;;;;3.15;1.30;;;14.30;99.90;;;;;;5049206;28;20488;-63
2022/05/23 01:48:50;;;;;;;7.38;1.98;;;14.30;99.90;;;;;;5046594;28;20045;-63
2022/05/23 01:51:16;;;;;;;7.13;1.60;;;14.30;99.90;;;;;;5050783;28;20044;-63
2022/05/23 01:53:42;;;;;;;4.28;1.40;;;14.30;99.90;;;;;;5050248;28;20048;-63
2022/05/23 01:56:07;;;;;;;3.53;1.40;;;14.30;99.90;;;;;;5048308;28;20503;-63
2022/05/23 02:01:17;;;;;;;3.78;1.50;;;14.20;99.90;;;;;;5049079;28;20041;-63
2022/05/23 02:03:46;;;;;;;3.83;1.52;;;14.20;99.90;;;;;;5049089;28;20048;-63
2022/05/23 02:06:12;;;;;;;5.45;1.48;;;14.20;99.90;;;;;;5047002;28;20135;-63
2022/05/23 02:08:38;;;;;;;3.08;1.10;;;14.20;99.90;;;;;;5051333;28;20044;-63
2022/05/23 02:11:08;;;;;;;4.20;1.52;;;14.20;99.90;;;;;;5049724;28;20040;-63
2022/05/23 02:13:36;;;;;;;4.53;1.70;;;14.20;99.90;;;;;;5048070;28;20044;-64
2022/05/23 02:16:02;;;;;;;6.07;1.20;;;14.10;99.90;;;;;;5046858;28;20048;-63
2022/05/23 02:18:29;;;;;;;2.92;1.30;;;14.10;99.90;;;;;;5050687;28;20032;-63
2022/05/23 02:20:54;;;;;;;2.25;1.35;;;14.10;99.90;;;;;;5051958;28;20075;-63
2022/05/23 02:23:20;;;;;;;4.32;1.42;;;14.10;99.90;;;;;;5050128;28;20579;-64
2022/05/23 02:25:46;;;;;;;2.45;1.48;;;14.10;99.90;;;;;;5050047;28;20033;-63
2022/05/23 02:28:12;;;;;;;3.65;1.30;;;14.10;99.90;;;;;;5048414;28;20036;-63
2022/05/23 02:30:38;;;;;;;6.00;1.45;;;14.10;99.90;;;;;;5051276;28;20068;-63
2022/05/23 02:33:04;;;;;;;4.43;1.30;;;14.10;99.90;;;;;;5050088;28;20060;-63
2022/05/23 02:35:30;;;;;;;3.40;1.40;;;14.00;99.90;;;;;;5048560;28;20494;-63
2022/05/23 02:37:56;;;;;;;5.10;1.98;;;14.00;99.90;;;;;;5049716;28;20163;-63
2022/05/23 02:40:22;;;;;;;4.22;1.38;;;14.00;99.90;;;;;;5048515;28;20044;-63
2022/05/23 02:42:48;;;;;;;4.63;1.60;;;14.00;99.90;;;;;;5050951;28;20044;-63
2022/05/23 02:45:14;;;;;;;7.10;1.48;;;14.00;99.90;;;;;;5050189;28;20045;-64
2022/05/23 02:47:40;;;;;;;4.95;1.50;;;14.00;99.90;;;;;;5047507;28;20051;-63
2022/05/23 02:50:07;;;;;;;3.95;1.35;;;14.00;99.90;;;;;;5047470;28;20045;-63
2022/05/23 02:52:32;;;;;;;5.07;1.50;;;14.00;99.90;;;;;;5051034;28;21490;-63
2022/05/23 02:54:58;;;;;;;4.07;1.77;;;14.00;99.90;;;;;;5049754;28;20032;-63
2022/05/23 02:57:24;;;;;;;5.30;1.40;;;14.00;99.90;;;;;;5049010;28;20490;-63
2022/05/23 02:59:49;;;;;;;5.93;1.50;;;14.00;99.90;;;;;;5043517;28;20132;-63
2022/05/23 03:04:59;;;;;;;6.72;1.67;;;14.00;99.90;;;;;;5049292;28;20041;-63
2022/05/23 03:07:25;;;;;;;5.55;1.63;;;14.00;99.90;;;;;;5049631;28;20098;-63
2022/05/23 03:09:50;;;;;;;4.07;1.42;;;14.00;99.90;;;;;;5048586;28;20037;-63
2022/05/23 03:12:16;;;;;;;3.05;1.17;;;14.00;99.90;;;;;;5050986;28;20033;-63
2022/05/23 03:14:42;;;;;;;3.05;1.35;;;14.00;99.90;;;;;;5048837;28;20029;-63
2022/05/23 03:17:08;;;;;;;4.55;1.40;;;14.00;99.90;;;;;;5050532;28;20073;-63
2022/05/23 03:19:38;;;;;;;2.60;1.45;;;14.00;99.90;;;;;;5045263;28;20128;-63
2022/05/23 03:27:36;;;;;;;4.70;1.38;;;13.90;99.90;;;;;;5047621;28;20056;-63
2022/05/23 03:30:04;;;;;;;3.13;1.77;;;13.90;99.90;;;;;;5045228;28;20044;-63
2022/05/23 03:32:29;;;;;;;5.18;1.90;;;13.90;99.90;;;;;;5049559;28;20056;-63
2022/05/23 03:34:55;;;;;;;3.58;1.60;;;13.90;99.90;;;;;;5046744;28;20376;-62
2022/05/23 03:37:21;;;;;;;5.30;1.52;;;13.90;99.90;;;;;;5046377;28;20044;-63
2022/05/23 03:39:47;;;;;;;4.47;1.80;;;13.90;99.90;;;;;;5048676;28;20054;-63
2022/05/23 03:42:14;;;;;;;4.22;1.88;;;13.80;99.90;;;;;;5048562;28;20373;-63
2022/05/23 03:44:39;;;;;;;4.75;1.75;;;13.80;99.90;;;;;;5045942;28;20037;-63
2022/05/23 03:47:05;;;;;;;4.97;1.73;;;13.80;99.90;;;;;;5048080;28;20412;-63
2022/05/23 03:49:32;;;;;;;3.08;1.70;;;13.80;99.90;;;;;;5048239;28;20040;-63
2022/05/23 03:51:59;;;;;;;7.00;1.85;;;13.80;99.90;;;;;;5049359;28;20047;-63
2022/05/23 03:54:25;;;;;;;4.47;1.60;;;13.80;99.90;;;;;;5050462;28;20041;-64
2022/05/23 03:56:50;;;;;;;4.75;1.75;;;13.80;99.90;;;;;;5041271;28;20536;-63
2022/05/23 03:59:16;;;;;;;5.28;1.70;;;13.80;99.90;;;;;;5049228;28;20037;-63
2022/05/23 04:01:42;;;;;;;5.10;1.60;;;13.80;99.90;;;;;;5049244;28;20045;-64
2022/05/23 04:04:07;;;;;;;11.25;1.77;;;13.80;99.90;;;;;;5049282;28;20053;-63
2022/05/23 04:06:35;;;;;;;4.40;1.52;;;13.70;99.90;;;;;;5047063;28;20052;-63
2022/05/23 04:09:01;;;;;;;3.50;1.80;;;13.70;99.90;;;;;;5045088;28;20041;-64
2022/05/23 04:11:26;;;;;;;5.00;1.58;;;13.80;99.90;;;;;;5047329;28;20033;-63
2022/05/23 04:13:52;;;;;;;6.50;1.77;;;13.70;99.90;;;;;;5049984;28;20059;-63
2022/05/23 04:16:18;;;;;;;1.70;1.25;;;13.70;99.90;;;;;;5048682;28;20123;-63
2022/05/23 04:18:44;;;;;;;3.65;1.92;;;13.70;99.90;;;;;;5048376;28;20407;-63
2022/05/23 04:21:10;;;;;;;6.80;1.83;;;13.70;99.90;;;;;;5043384;28;20068;-63
2022/05/23 04:23:35;;;;;;;3.13;1.67;;;13.70;99.90;;;;;;5050229;28;20040;-63
2022/05/23 04:26:08;;;;;;;5.38;1.80;;;13.70;99.90;;;;;;5048191;28;20502;-63
2022/05/23 04:28:36;;;;;;;5.30;2.13;;;13.70;99.90;;;;;;5047371;28;20045;-63
2022/05/23 04:31:02;;;;;;;3.15;1.70;;;13.80;99.90;;;;;;5050184;28;20080;-63
2022/05/23 04:36:13;;;;;;;3.28;1.73;;;13.80;99.90;;;;;;5052765;28;20048;-63
2022/05/23 04:38:38;;;;;;;4.20;1.90;;;13.90;99.90;;;;;;5052369;28;20048;-63
2022/05/23 04:41:07;;;;;;;3.35;1.75;;;13.90;99.90;;;;;;5051970;28;20044;-63
2022/05/23 04:43:33;;;;;;;4.43;1.88;;;14.00;99.90;;;;;;5051973;28;20520;-64
2022/05/23 04:45:59;;;;;;;4.28;1.90;;;14.00;99.90;;;;;;5045555;28;20050;-63
2022/05/23 04:51:09;;;;;;;3.00;1.85;;;14.00;99.90;;;;;;5048726;28;20500;-63
2022/05/23 04:53:34;;;;;;;6.55;2.40;;;14.10;99.90;;;;;;5052588;28;20039;-63
2022/05/23 04:56:00;;;;;;;3.40;1.90;;;14.10;99.90;;;;;;5049627;28;20045;-63
2022/05/23 04:58:27;;;;;;;5.63;2.30;;;14.10;99.90;;;;;;5050054;28;20048;-63
2022/05/23 05:00:53;;;;;;;3.30;1.70;;;14.20;99.90;;;;;;5053200;28;20731;-63
2022/05/23 05:03:19;;;;;;;4.30;1.88;;;14.20;99.90;;;;;;5049969;28;20049;-63
2022/05/23 05:05:46;;;;;;;5.30;2.08;;;14.20;99.90;;;;;;5053214;28;20068;-63
2022/05/23 05:08:12;;;;;;;5.25;2.10;;;14.20;99.90;;;;;;5047545;28;20079;-63
2022/05/23 05:10:37;;;;;;;6.15;2.10;;;14.20;99.90;;;;;;5051398;28;20403;-64
2022/05/23 05:13:03;;;;;;;6.13;2.03;;;14.30;99.90;;;;;;5053794;28;20154;-63
2022/05/23 05:15:29;;;;;;;5.97;2.30;;;14.30;99.90;;;;;;5050125;28;20041;-63
2022/05/23 05:17:56;;;;;;;5.13;2.10;;;14.30;99.90;;;;;;5051647;28;20041;-64
2022/05/23 05:20:23;;;;;;;3.33;1.95;;;14.30;99.90;;;;;;5051176;28;20063;-63
2022/05/23 05:22:50;;;;;;;7.20;2.38;;;14.40;99.90;;;;;;5052042;28;20036;-63
2022/05/23 05:25:17;;;;;;;3.90;1.80;;;14.50;99.90;;;;;;5050956;28;20439;-63
2022/05/23 05:27:43;;;;;;;5.25;2.20;;;14.70;99.90;;;;;;5050088;28;20041;-64
2022/05/23 05:30:11;;;;;;;4.35;2.15;;;14.80;99.90;;;;;;5051807;28;20040;-63
2022/05/23 05:32:43;;;;;;;5.45;2.40;;;15.00;99.90;;;;;;5051248;28;20040;-63
2022/05/23 05:35:21;;;;;;;4.10;2.30;;;15.10;99.90;;;;;;5051094;28;20036;-63
2022/05/23 05:37:59;;;;;;;6.80;2.50;;;15.20;99.90;;;;;;5051632;28;20040;-64
2022/05/23 05:40:28;;;;;;;4.18;2.38;;;15.20;99.90;;;;;;5050552;28;20045;-64
2022/05/23 05:43:01;;;;;;;5.45;2.90;;;15.30;99.90;;;;;;5051511;28;20037;-64
2022/05/23 05:45:32;;;;;;;4.63;2.83;;;15.30;99.90;;;;;;5050182;28;20385;-64
2022/05/23 05:47:59;;;;;;;4.35;2.45;;;15.30;99.90;;;;;;5055950;28;20052;-64
2022/05/23 05:50:30;;;;;;;5.45;2.55;;;15.30;99.90;;;;;;5052001;28;20122;-63
2022/05/23 05:53:00;;;;;;;4.90;2.28;;;15.30;99.90;;;;;;5053069;28;20036;-63
2022/05/23 05:55:26;;;;;;;6.95;2.83;;;15.40;99.90;;;;;;5052170;28;20525;-64
2022/05/23 05:57:52;;;;;;;6.75;3.38;;;15.50;99.90;;;;;;5054920;28;20076;-63
2022/05/23 06:00:19;;;;;;;5.05;3.00;;;15.60;99.90;;;;;;5052163;28;20044;-63
2022/05/23 06:02:45;;;;;;;4.95;2.80;;;15.70;99.90;;;;;;5051812;28;20047;-63
2022/05/23 06:05:11;;;;;;;6.70;2.92;;;15.80;99.90;;;;;;5052077;28;20028;-64
2022/05/23 06:13:05;;;;;;;6.43;3.03;;;16.20;99.90;;;;;;5051533;28;20048;-63
2022/05/23 06:15:31;;;;;;;9.70;2.95;;;16.30;99.90;;;;;;5051496;28;20492;-63
2022/05/23 06:17:57;;;;;;;3.55;2.35;;;16.30;99.90;;;;;;5050898;28;20040;-63
2022/05/23 06:20:26;;;;;;;4.72;3.03;;;16.40;99.90;;;;;;5051543;28;20187;-63
2022/05/23 06:22:51;;;;;;;6.70;3.00;;;16.40;99.90;;;;;;5051585;28;20115;-63
2022/05/23 06:25:17;;;;;;;5.40;3.00;;;16.50;99.90;;;;;;5051769;28;20075;-63
2022/05/23 06:27:43;;;;;;;7.30;3.00;;;16.60;99.90;;;;;;5051226;28;20392;-63
2022/05/23 06:30:12;;;;;;;5.72;3.20;;;16.60;99.90;;;;;;5051080;28;20086;-63
2022/05/23 06:32:38;;;;;;;4.78;2.80;;;16.60;99.90;;;;;;5051232;28;20542;-64
2022/05/23 06:35:07;;;;;;;4.75;2.90;;;16.60;99.90;;;;;;5051515;28;20167;-63
2022/05/23 06:37:37;;;;;;;5.90;2.83;;;16.80;99.90;;;;;;5047282;28;20048;-63
2022/05/23 06:40:05;;;;;;;6.00;2.67;;;17.00;99.90;;;;;;5050610;28;20396;-64
2022/05/23 06:42:32;;;;;;;4.97;2.97;;;17.20;99.90;;;;;;5050900;28;20033;-64
2022/05/23 06:44:59;;;;;;;4.57;2.80;;;17.40;99.90;;;;;;5051279;28;20041;-64
2022/05/23 06:47:25;;;;;;;6.57;3.13;;;17.50;99.90;;;;;;5050559;28;20053;-63
2022/05/23 06:49:50;;;;;;;8.30;3.20;;;17.70;99.90;;;;;;5049051;28;20392;-64
2022/05/23 06:52:16;;;;;;;6.47;2.90;;;17.80;99.90;;;;;;5050613;28;20041;-63
2022/05/23 06:54:42;;;;;;;8.43;3.50;;;17.90;99.90;;;;;;5049286;28;20059;-63
2022/05/23 06:57:08;;;;;;;5.97;3.03;;;18.00;99.90;;;;;;5051019;28;20486;-64
2022/05/23 06:59:34;;;;;;;9.02;3.85;;;18.10;99.90;;;;;;5048626;28;20060;-64
2022/05/23 07:02:01;;;;;;;7.00;2.92;;;18.20;99.90;;;;;;5050899;28;20044;-63
2022/05/23 07:12:19;;;;;;;5.88;2.90;;;18.30;99.90;;;;;;5050786;28;20041;-64
2022/05/23 07:12:41;;;;;;;5.53;3.28;;;18.50;99.90;;;;;;5050589;28;20041;-65
2022/05/23 07:15:08;;;;;;;7.68;3.45;;;18.50;99.90;;;;;;5048876;28;20419;-64
2022/05/23 07:17:33;;;;;;;3.90;2.95;;;18.40;99.90;;;;;;5050570;28;20033;-63
2022/05/23 07:19:59;;;;;;;8.10;3.20;;;18.50;99.90;;;;;;5046226;28;20506;-63
2022/05/23 07:22:25;;;;;;;5.57;2.90;;;18.60;99.90;;;;;;5047770;28;20048;-63
2022/05/23 07:24:51;;;;;;;6.25;3.20;;;18.70;99.90;;;;;;5048491;28;20041;-63
2022/05/23 07:27:22;;;;;;;8.02;3.22;;;18.80;99.90;;;;;;5049115;28;20149;-63
2022/05/23 07:29:48;;;;;;;7.90;3.47;;;18.90;99.90;;;;;;5050163;28;20082;-64
2022/05/23 07:32:15;;;;;;;7.47;3.67;;;19.00;99.90;;;;;;5049683;28;20133;-63
2022/05/23 07:34:41;;;;;;;7.93;3.70;;;19.10;99.90;;;;;;5049851;28;20041;-64
2022/05/23 07:37:09;;;;;;;17.77;4.00;;;19.10;99.90;;;;;;5049608;28;20179;-64
2022/05/23 07:39:39;;;;;;;10.75;3.72;;;19.20;99.90;;;;;;5047067;28;20559;-63
2022/05/23 07:42:07;;;;;;;6.43;3.17;;;19.30;99.90;;;;;;5048486;28;20096;-64
2022/05/23 07:44:33;;;;;;;4.75;3.38;;;19.30;99.90;;;;;;5050028;28;20048;-64
2022/05/23 07:46:59;;;;;;;6.55;3.47;;;19.40;99.90;;;;;;5049182;28;20091;-64
2022/05/23 07:49:26;;;;;;;7.30;3.25;;;19.50;99.90;;;;;;5049154;28;20471;-64
2022/05/23 07:51:56;;;;;;;6.00;3.40;;;19.70;99.90;;;;;;5049893;28;20076;-63
2022/05/23 08:02:36;;;;;;;7.18;3.63;;;19.90;99.90;;;;;;5052277;28;20049;-63
2022/05/23 08:05:03;;;;;;;6.45;3.28;;;20.00;99.90;;;;;;5053847;28;20093;-64
2022/05/23 08:07:28;;;;;;;6.35;3.45;;;20.10;99.90;;;;;;5053185;28;20503;-64
2022/05/23 08:09:56;;;;;;;6.03;3.60;;;20.30;99.90;;;;;;5052132;28;20033;-64
2022/05/23 08:12:22;;;;;;;6.65;3.20;;;20.40;99.90;;;;;;5052378;28;20041;-63
2022/05/23 08:14:47;;;;;;;10.07;3.80;;;20.60;99.90;;;;;;5053531;28;20039;-64
2022/05/23 08:17:13;;;;;;;5.53;3.33;;;20.80;99.90;;;;;;5053095;28;20045;-64
2022/05/23 08:19:39;;;;;;;7.38;3.30;;;21.00;99.90;;;;;;5052091;28;20131;-64
2022/05/23 08:22:06;;;;;;;8.60;3.85;;;21.00;99.90;;;;;;5053500;28;20044;-64
2022/05/23 08:24:33;;;;;;;4.38;3.10;;;21.10;99.90;;;;;;5051707;28;20048;-64
2022/05/23 08:26:59;;;;;;;5.88;3.35;;;21.20;99.90;;;;;;5053858;28;20091;-64
2022/05/23 08:29:25;;;;;;;5.35;3.20;;;21.20;99.90;;;;;;5051998;28;20033;-63
2022/05/23 08:31:51;;;;;;;8.27;3.58;;;21.30;99.90;;;;;;5052051;28;20060;-64
2022/05/23 08:34:17;;;;;;;5.90;3.40;;;21.50;99.90;;;;;;5053291;28;20391;-64
2022/05/23 08:36:43;;;;;;;6.45;3.33;;;21.70;99.90;;;;;;5053446;28;20052;-64
2022/05/23 08:39:08;;;;;;;4.88;3.53;;;21.80;99.90;;;;;;5052856;28;20040;-64
2022/05/23 08:41:37;;;;;;;6.93;3.50;;;22.00;99.90;;;;;;5053448;28;20040;-64
2022/05/23 08:44:17;;;;;;;6.93;2.90;;;22.10;99.90;;;;;;5052103;28;20072;-64
2022/05/23 08:47:01;;;;;;;7.85;3.33;;;22.20;99.90;;;;;;5051913;28;20053;-63
2022/05/23 08:49:40;;;;;;;5.32;3.22;;;22.40;99.90;;;;;;5052917;28;20068;-64
2022/05/23 08:52:13;;;;;;;7.40;3.58;;;22.50;99.90;;;;;;5053045;28;20488;-63
2022/05/23 08:54:57;;;;;;;7.75;3.58;;;22.40;99.90;;;;;;5050880;28;20066;-64
2022/05/23 08:57:32;;;;;;;5.82;3.40;;;22.40;99.90;;;;;;5050166;28;20072;-64
2022/05/23 09:00:04;;;;;;;5.18;3.20;;;22.40;99.90;;;;;;5049700;28;20048;-64
2022/05/23 09:02:38;;;;;;;6.82;3.60;;;22.30;99.90;;;;;;5051518;28;20040;-64
2022/05/23 09:05:11;;;;;;;7.00;4.40;;;22.40;99.90;;;;;;5050683;28;20037;-64
2022/05/23 09:07:52;;;;;;;7.80;3.58;;;22.50;99.90;;;;;;5052676;28;20046;-63
2022/05/23 09:10:44;;;;;;;6.53;4.25;;;22.60;99.90;;;;;;5052686;28;20419;-64
2022/05/23 09:13:12;;;;;;;6.30;4.30;;;22.70;99.90;;;;;;5013295;28;20131;-64
2022/05/23 09:15:38;;;;;;;5.93;3.55;;;23.00;99.90;;;;;;5030204;28;20119;-64
2022/05/23 09:18:06;;;;;;;6.07;3.55;;;23.20;99.90;;;;;;5030242;28;20041;-64
2022/05/23 09:20:53;;;;;;;7.10;3.53;;;23.20;99.90;;;;;;5013683;28;20049;-64
2022/05/23 09:23:31;;;;;;;5.35;3.22;;;23.10;99.90;;;;;;5029061;28;20077;-64
2022/05/23 09:26:02;;;;;;;4.85;3.10;;;23.10;99.90;;;;;;5029934;28;20038;-64
2022/05/23 09:28:27;;;;;;;5.60;3.60;;;23.00;99.90;;;;;;5013703;28;20139;-64
2022/05/23 09:31:11;;;;;;;4.60;3.05;;;22.80;99.90;;;;;;5030181;28;20519;-64
2022/05/23 09:33:46;;;;;;;6.65;3.00;;;22.70;99.90;;;;;;5029578;28;20064;-63
2022/05/23 09:36:20;;;;;;;5.03;3.05;;;22.50;99.90;;;;;;5013763;28;20042;-64
2022/05/23 09:38:53;;;;;;;5.22;3.20;;;22.40;99.90;;;;;;5030160;28;20076;-65
2022/05/23 09:49:56;;;;;;;6.35;3.20;;;22.20;99.90;;;;;;5038214;28;20041;-64
2022/05/23 09:52:29;;;;;;;5.32;2.75;;;22.30;99.90;;;;;;5049087;28;20037;-64
2022/05/23 09:55:23;;;;;;;6.32;3.00;;;22.50;99.90;;;;;;5051968;28;20037;-64
2022/05/23 09:58:06;;;;;;;5.22;3.22;;;22.80;99.90;;;;;;5049896;28;20080;-65
2022/05/23 10:00:34;;;;;;;6.63;3.20;;;22.90;99.90;;;;;;5050470;28;20047;-64
2022/05/23 10:03:04;;;;;;;6.22;3.08;;;23.00;99.90;;;;;;5051605;28;20487;-64
2022/05/23 10:05:46;;;;;;;6.10;2.95;;;23.30;99.90;;;;;;5033415;28;20056;-63
2022/05/23 10:08:28;;;;;;;5.63;2.95;;;23.50;99.90;;;;;;5050698;28;20048;-64
2022/05/23 10:10:58;;;;;;;4.80;2.20;;;23.60;99.90;;;;;;5051049;28;20037;-65
2022/05/23 10:13:52;;;;;;;3.75;1.95;;;23.70;99.90;;;;;;5050277;28;20044;-64
2022/05/23 10:16:26;;;;;;;4.75;2.25;;;23.90;99.90;;;;;;5050364;28;20052;-64
2022/05/23 10:19:00;;;;;;;6.13;2.50;;;23.90;99.90;;;;;;5051199;28;20045;-65
2022/05/23 10:21:35;;;;;;;4.60;2.20;;;24.10;99.40;;;;;;5050710;28;20036;-64
2022/05/23 10:24:19;;;;;;;3.55;1.80;;;24.40;98.50;;;;;;5048353;28;20133;-64
2022/05/23 10:27:06;;;;;;;3.50;1.73;;;24.50;97.80;;;;;;5048780;28;20053;-64
2022/05/23 10:29:43;;;;;;;4.03;1.70;;;24.60;96.60;;;;;;5050923;28;20158;-65
2022/05/23 10:32:13;;;;;;;2.78;1.30;;;24.90;97.20;;;;;;5050780;28;20374;-65
2022/05/23 10:34:48;;;;;;;3.60;1.85;;;25.10;96.80;;;;;;5048781;28;20033;-65
2022/05/23 10:37:20;;;;;;;3.70;1.90;;;25.30;95.70;;;;;;5047978;28;20044;-65
2022/05/23 10:42:36;;;;;;;4.95;2.20;;;25.50;94.60;;;;;;5050851;28;20044;-64
2022/05/23 10:45:28;;;;;;;3.47;1.85;;;25.60;94.60;;;;;;5048106;28;20044;-65
2022/05/23 10:48:11;;;;;;;4.53;1.50;;;25.50;93.90;;;;;;5050952;28;20187;-64
2022/05/23 10:51:12;;;;;;;2.80;1.50;;;25.30;92.80;;;;;;5049990;28;20292;-64
2022/05/23 10:53:49;;;;;;;4.07;1.42;;;25.20;92.20;;;;;;5020049;28;20049;-64
2022/05/23 10:56:45;;;;;;;3.90;1.80;;;25.20;92.00;;;;;;5027767;28;20084;-64
2022/05/23 10:59:28;;;;;;;3.33;1.73;;;25.50;92.30;;;;;;5027532;28;20120;-64
2022/05/23 11:02:12;;;;;;;4.85;1.52;;;25.80;92.70;;;;;;5027486;28;20041;-64
2022/05/23 11:04:58;;;;;;;4.25;1.90;;;26.00;91.20;;;;;;5011140;28;20045;-65
2022/05/23 11:07:35;;;;;;;2.70;1.55;;;26.00;90.20;;;;;;5034313;28;20397;-65
2022/05/23 11:10:19;;;;;;;3.80;1.55;;;25.90;90.70;;;;;;5028654;28;20052;-64
2022/05/23 11:13:33;;;;;;;3.97;1.60;;;25.80;91.50;;;;;;5028902;28;20038;-65
2022/05/23 11:16:04;;;;;;;2.78;1.50;;;25.60;91.10;;;;;;5029719;28;20504;-65
2022/05/23 11:18:51;;;;;;;5.18;1.48;;;25.30;90.60;;;;;;5028427;28;20416;-65
2022/05/23 11:21:43;;;;;;;3.42;1.50;;;25.20;91.00;;;;;;5027677;28;20037;-64
2022/05/23 11:24:22;;;;;;;3.13;1.40;;;25.10;91.20;;;;;;5028371;28;20085;-64
2022/05/23 11:26:54;;;;;;;3.55;1.70;;;25.10;92.10;;;;;;5028051;28;20443;-64
2022/05/23 11:34:58;;;;;;;4.10;1.92;;;24.80;91.60;;;;;;5050330;28;20040;-66
2022/05/23 11:37:43;;;;;;;4.80;1.63;;;24.80;91.70;;;;;;5048664;28;20482;-64
2022/05/23 11:40:25;;;;;;;4.28;2.20;;;24.70;91.70;;;;;;5047174;28;20036;-65
2022/05/23 11:43:02;;;;;;;5.10;1.92;;;24.70;91.50;;;;;;5050404;28;20041;-65
2022/05/23 11:48:37;;;;;;;3.13;1.80;;;24.90;92.30;;;;;;5049906;28;20072;-65
2022/05/23 11:51:24;;;;;;;4.70;1.77;;;24.90;92.30;;;;;;5049915;28;20435;-65
2022/05/23 11:53:56;;;;;;;4.13;1.88;;;24.70;92.00;;;;;;5049446;28;20044;-64
2022/05/23 11:57:10;;;;;;;1.38;1.27;;;24.40;90.90;;;;;;5049941;28;20041;-65
2022/05/23 11:59:35;;;;;;;3.22;1.20;;;24.30;91.60;;;;;;5049474;28;20053;-64
2022/05/23 12:02:07;;;;;;;2.53;1.30;;;24.10;91.70;;;;;;5050038;28;20032;-64
2022/05/23 12:04:52;;;;;;;3.42;1.55;;;24.00;91.50;;;;;;5048006;28;20037;-64
2022/05/23 12:07:41;;;;;;;4.82;1.27;;;23.90;91.40;;;;;;5045173;28;20045;-63
2022/05/23 12:10:21;;;;;;;2.15;1.63;;;23.90;92.20;;;;;;5048446;28;20037;-65
2022/05/23 12:13:09;;;;;;;3.17;1.95;;;23.90;92.00;;;;;;5049028;28;20132;-64
2022/05/23 12:15:43;;;;;;;3.47;1.70;;;23.90;92.10;;;;;;5047913;28;20037;-64
2022/05/23 12:18:12;;;;;;;3.90;1.83;;;23.90;92.20;;;;;;5049836;28;20071;-64
2022/05/23 12:20:48;;;;;;;6.53;2.40;;;23.90;92.40;;;;;;5049694;28;20040;-64
2022/05/23 12:23:29;;;;;;;4.25;2.10;;;23.80;92.90;;;;;;5049224;28;20381;-64
2022/05/23 12:26:10;;;;;;;6.50;2.30;;;23.80;93.10;;;;;;5049578;28;20045;-65
2022/05/23 12:28:48;;;;;;;3.72;1.92;;;23.60;93.40;;;;;;5049891;28;20048;-64
2022/05/23 12:31:19;;;;;;;5.53;2.38;;;23.60;93.90;;;;;;5049406;28;20040;-64
2022/05/23 12:34:10;;;;;;;5.78;2.80;;;23.50;94.30;;;;;;5049466;28;20068;-64
2022/05/23 12:36:46;;;;;;;3.88;2.72;;;23.50;94.60;;;;;;5046675;28;20044;-64
2022/05/23 12:39:36;;;;;;;4.20;3.33;;;23.30;94.50;;;;;;5049192;28;21683;-64
2022/05/23 12:42:16;;;;;;;4.82;3.30;;;23.30;94.50;;;;;;5046954;28;20044;-64
2022/05/23 12:44:59;;;;;;;4.85;3.05;;;23.10;94.70;;;;;;5048388;28;20044;-64
2022/05/23 12:48:16;;;;;;;7.65;3.38;;;23.10;95.30;;;;;;5047528;28;20068;-64
2022/05/23 12:50:44;;;;;;;3.67;3.03;;;23.00;95.30;;;;;;5048959;28;20057;-64
2022/05/23 12:53:34;;;;;;;4.00;3.00;;;23.00;95.50;;;;;;5034389;28;20099;-64
2022/05/23 12:56:20;;;;;;;10.40;3.78;;;23.00;95.60;;;;;;5034353;28;20057;-64
2022/05/23 12:59:06;;;;;;;4.47;3.05;;;23.00;95.70;;;;;;5010886;28;20049;-64
2022/05/23 13:01:37;;;;;;;7.35;3.33;;;22.90;96.20;;;;;;4997797;28;20046;-64
2022/05/23 13:04:27;;;;;;;6.38;3.40;;;22.90;96.30;;;;;;4997417;28;20049;-64
2022/05/23 13:07:06;;;;;;;6.72;3.60;;;22.80;96.70;;;;;;5014450;28;20045;-64
2022/05/23 13:09:46;;;;;;;6.60;3.90;;;22.80;96.60;;;;;;5014090;28;20076;-64
2022/05/23 13:12:21;;;;;;;6.78;3.50;;;22.80;97.10;;;;;;4997425;28;20140;-64
2022/05/23 13:14:56;;;;;;;5.75;3.80;;;22.80;97.30;;;;;;5031126;28;21187;-64
2022/05/23 13:17:49;;;;;;;7.03;3.85;;;22.80;97.60;;;;;;4995334;28;20077;-64
2022/05/23 13:23:17;;;;;;;6.05;4.03;;;22.90;97.90;;;;;;5014254;28;20041;-64
2022/05/23 13:25:47;;;;;;;6.88;3.97;;;23.00;98.40;;;;;;4997703;28;20091;-64
2022/05/23 13:28:15;;;;;;;5.72;3.70;;;23.00;98.20;;;;;;5030323;28;20033;-65
2022/05/23 13:30:47;;;;;;;7.18;3.60;;;23.10;98.40;;;;;;5013649;28;20492;-64
2022/05/23 13:33:30;;;;;;;7.22;3.70;;;23.10;98.60;;;;;;5012264;28;20049;-64
2022/05/23 13:36:06;;;;;;;8.15;4.15;;;23.10;98.50;;;;;;5032045;28;20049;-64
2022/05/23 13:38:34;;;;;;;7.20;3.40;;;23.20;98.50;;;;;;5050707;28;20041;-63
2022/05/23 13:41:05;;;;;;;5.88;4.25;;;23.30;98.60;;;;;;5052410;28;20411;-64
2022/05/23 13:43:46;;;;;;;5.90;3.83;;;23.30;98.80;;;;;;5067530;28;20041;-64
2022/05/23 13:46:37;;;;;;;6.30;4.15;;;23.40;99.30;;;;;;5048390;28;20061;-64
2022/05/23 13:49:09;;;;;;;6.95;3.95;;;23.50;99.10;;;;;;5046461;28;20079;-64
2022/05/23 13:51:49;;;;;;;10.50;4.00;;;23.60;99.00;;;;;;5049632;28;20048;-64
2022/05/23 13:54:18;;;;;;;5.88;4.45;;;23.70;99.30;;;;;;5051838;28;20029;-64
2022/05/23 13:56:48;;;;;;;5.38;4.03;;;23.70;98.50;;;;;;5050594;28;20128;-64
2022/05/23 13:59:19;;;;;;;5.47;4.18;;;23.70;98.10;;;;;;5050610;28;20037;-64
2022/05/23 14:01:50;;;;;;;8.52;4.15;;;23.60;98.10;;;;;;5050590;28;20048;-64
2022/05/23 14:04:20;;;;;;;6.30;4.35;;;23.60;98.20;;;;;;5051694;28;20052;-65
2022/05/23 14:06:54;;;;;;;5.47;4.00;;;23.60;98.20;;;;;;5051524;28;20049;-64
2022/05/23 14:09:21;;;;;;;7.07;3.75;;;23.50;97.80;;;;;;5050740;28;20049;-64
2022/05/23 14:12:01;;;;;;;7.47;4.20;;;23.40;98.00;;;;;;5049887;28;20111;-65